sensor_id;sensor_type;location;lat;lon;timestamp;temperature;humidity
17599;DHT22;8918;52.092;5.232;2022-10-16T00:01:57;12.90;99.90
17599;DHT22;8918;52.092;5.232;2022-10-16T00:04:22;12.90;99.90
17599;DHT22;8918;52.092;5.232;2022-10-16T00:06:48;12.90;99.90
17599;DHT22;8918;52.092;5.232;2022-10-16T00:09:14;12.90;99.90
17599;DHT22;8918;52.092;5.232;2022-10-16T00:11:40;12.90;99.90
17599;DHT22;8918;52.092;5.232;2022-10-16T00:14:09;12.90;99.90
17599;DHT22;8918;52.092;5.232;2022-10-16T00:16:35;12.90;99.90
17599;DHT22;8918;52.092;5.232;2022-10-16T00:19:01;12.90;99.90
17599;DHT22;8918;52.092;5.232;2022-10-16T00:21:28;12.90;99.90
17599;DHT22;8918;52.092;5.232;2022-10-16T00:24:03;12.90;99.90
17599;DHT22;8918;52.092;5.232;2022-10-16T00:26:31;12.90;99.90
17599;DHT22;8918;52.092;5.232;2022-10-16T00:28:56;13.00;99.90
17599;DHT22;8918;52.092;5.232;2022-10-16T00:31:23;12.90;99.90
17599;DHT22;8918;52.092;5.232;2022-10-16T00:33:49;12.90;99.90
17599;DHT22;8918;52.092;5.232;2022-10-16T00:36:18;13.00;99.90
17599;DHT22;8918;52.092;5.232;2022-10-16T00:38:44;13.00;99.90
17599;DHT22;8918;52.092;5.232;2022-10-16T00:41:13;13.00;99.90
17599;DHT22;8918;52.092;5.232;2022-10-16T00:43:46;13.00;99.90
17599;DHT22;8918;52.092;5.232;2022-10-16T00:47:00;13.00;99.90
17599;DHT22;8918;52.092;5.232;2022-10-16T00:49:27;13.00;99.90
17599;DHT22;8918;52.092;5.232;2022-10-16T00:51:53;13.00;99.90
17599;DHT22;8918;52.092;5.232;2022-10-16T00:54:31;13.00;99.90
17599;DHT22;8918;52.092;5.232;2022-10-16T00:57:03;13.00;99.90
17599;DHT22;8918;52.092;5.232;2022-10-16T00:59:36;13.00;99.90
17599;DHT22;8918;52.092;5.232;2022-10-16T01:02:03;13.10;99.90
17599;DHT22;8918;52.092;5.232;2022-10-16T01:04:37;13.10;99.90
17599;DHT22;8918;52.092;5.232;2022-10-16T01:09:37;13.10;99.90
17599;DHT22;8918;52.092;5.232;2022-10-16T01:12:30;13.10;99.90
17599;DHT22;8918;52.092;5.232;2022-10-16T01:15:08;13.20;99.90
17599;DHT22;8918;52.092;5.232;2022-10-16T01:17:43;13.20;99.90
17599;DHT22;8918;52.092;5.232;2022-10-16T01:20:27;13.30;99.90
17599;DHT22;8918;52.092;5.232;2022-10-16T01:23:19;13.30;99.90
17599;DHT22;8918;52.092;5.232;2022-10-16T01:28:51;13.30;99.90
17599;DHT22;8918;52.092;5.232;2022-10-16T01:31:20;13.30;99.90
17599;DHT22;8918;52.092;5.232;2022-10-16T01:34:32;13.30;99.90
17599;DHT22;8918;52.092;5.232;2022-10-16T01:36:46;13.30;99.90
17599;DHT22;8918;52.092;5.232;2022-10-16T01:39:14;13.30;99.90
17599;DHT22;8918;52.092;5.232;2022-10-16T01:41:49;13.30;99.90
17599;DHT22;8918;52.092;5.232;2022-10-16T01:44:21;13.20;99.90
17599;DHT22;8918;52.092;5.232;2022-10-16T01:46:50;13.30;99.90
17599;DHT22;8918;52.092;5.232;2022-10-16T01:49:17;13.20;99.90
17599;DHT22;8918;52.092;5.232;2022-10-16T01:51:46;13.30;99.90
17599;DHT22;8918;52.092;5.232;2022-10-16T01:54:14;13.30;99.90
17599;DHT22;8918;52.092;5.232;2022-10-16T01:56:42;13.30;99.90
17599;DHT22;8918;52.092;5.232;2022-10-16T01:59:13;13.30;99.90
17599;DHT22;8918;52.092;5.232;2022-10-16T02:01:43;13.40;99.90
17599;DHT22;8918;52.092;5.232;2022-10-16T02:04:17;13.30;99.90
17599;DHT22;8918;52.092;5.232;2022-10-16T02:06:44;13.30;99.90
17599;DHT22;8918;52.092;5.232;2022-10-16T02:09:10;13.30;99.90
17599;DHT22;8918;52.092;5.232;2022-10-16T02:11:36;13.30;99.90
17599;DHT22;8918;52.092;5.232;2022-10-16T02:14:05;13.30;99.90
17599;DHT22;8918;52.092;5.232;2022-10-16T02:16:39;13.30;99.90
17599;DHT22;8918;52.092;5.232;2022-10-16T02:19:06;13.30;99.90
17599;DHT22;8918;52.092;5.232;2022-10-16T02:21:48;13.20;99.90
17599;DHT22;8918;52.092;5.232;2022-10-16T02:24:26;13.20;99.90
17599;DHT22;8918;52.092;5.232;2022-10-16T02:27:02;13.20;99.90
17599;DHT22;8918;52.092;5.232;2022-10-16T02:29:32;13.10;99.90
17599;DHT22;8918;52.092;5.232;2022-10-16T02:32:02;13.10;99.90
17599;DHT22;8918;52.092;5.232;2022-10-16T02:34:32;13.10;99.90
17599;DHT22;8918;52.092;5.232;2022-10-16T02:36:58;13.00;99.90
17599;DHT22;8918;52.092;5.232;2022-10-16T02:39:27;13.00;99.90
17599;DHT22;8918;52.092;5.232;2022-10-16T02:41:53;13.00;99.90
17599;DHT22;8918;52.092;5.232;2022-10-16T02:44:19;13.00;99.90
17599;DHT22;8918;52.092;5.232;2022-10-16T02:46:44;13.00;99.90
17599;DHT22;8918;52.092;5.232;2022-10-16T02:49:10;13.00;99.90
17599;DHT22;8918;52.092;5.232;2022-10-16T02:51:35;13.00;99.90
17599;DHT22;8918;52.092;5.232;2022-10-16T02:54:02;13.00;99.90
17599;DHT22;8918;52.092;5.232;2022-10-16T02:56:27;13.00;99.90
17599;DHT22;8918;52.092;5.232;2022-10-16T02:58:53;13.00;99.90
17599;DHT22;8918;52.092;5.232;2022-10-16T03:01:18;13.10;99.90
17599;DHT22;8918;52.092;5.232;2022-10-16T03:03:44;13.10;99.90
17599;DHT22;8918;52.092;5.232;2022-10-16T03:06:09;13.10;99.90
17599;DHT22;8918;52.092;5.232;2022-10-16T03:08:36;13.10;99.90
17599;DHT22;8918;52.092;5.232;2022-10-16T03:11:01;13.00;99.90
17599;DHT22;8918;52.092;5.232;2022-10-16T03:13:27;13.00;99.90
17599;DHT22;8918;52.092;5.232;2022-10-16T03:15:52;13.10;99.90
17599;DHT22;8918;52.092;5.232;2022-10-16T03:18:18;13.00;99.90
17599;DHT22;8918;52.092;5.232;2022-10-16T03:20:43;13.00;99.90
17599;DHT22;8918;52.092;5.232;2022-10-16T03:23:09;13.00;99.90
17599;DHT22;8918;52.092;5.232;2022-10-16T03:25:35;13.00;99.90
17599;DHT22;8918;52.092;5.232;2022-10-16T03:28:00;13.00;99.90
17599;DHT22;8918;52.092;5.232;2022-10-16T03:30:26;13.00;99.90
17599;DHT22;8918;52.092;5.232;2022-10-16T03:32:52;13.00;99.90
17599;DHT22;8918;52.092;5.232;2022-10-16T03:35:20;13.00;99.90
17599;DHT22;8918;52.092;5.232;2022-10-16T03:37:45;13.00;99.90
17599;DHT22;8918;52.092;5.232;2022-10-16T03:40:11;13.00;99.90
17599;DHT22;8918;52.092;5.232;2022-10-16T03:42:37;12.90;99.90
17599;DHT22;8918;52.092;5.232;2022-10-16T03:45:03;12.90;99.90
17599;DHT22;8918;52.092;5.232;2022-10-16T03:47:28;12.90;99.90
17599;DHT22;8918;52.092;5.232;2022-10-16T03:49:54;12.90;99.90
17599;DHT22;8918;52.092;5.232;2022-10-16T03:52:20;12.90;99.90
17599;DHT22;8918;52.092;5.232;2022-10-16T03:54:45;12.80;99.90
17599;DHT22;8918;52.092;5.232;2022-10-16T03:57:11;12.80;99.90
17599;DHT22;8918;52.092;5.232;2022-10-16T03:59:36;12.80;99.90
17599;DHT22;8918;52.092;5.232;2022-10-16T04:02:02;12.80;99.90
17599;DHT22;8918;52.092;5.232;2022-10-16T04:04:27;12.70;99.90
17599;DHT22;8918;52.092;5.232;2022-10-16T04:06:53;12.80;99.90
17599;DHT22;8918;52.092;5.232;2022-10-16T04:09:19;12.80;99.90
17599;DHT22;8918;52.092;5.232;2022-10-16T04:11:44;12.80;99.90
17599;DHT22;8918;52.092;5.232;2022-10-16T04:14:10;12.70;99.90
17599;DHT22;8918;52.092;5.232;2022-10-16T04:16:35;12.80;99.90
17599;DHT22;8918;52.092;5.232;2022-10-16T04:19:01;12.80;99.90
17599;DHT22;8918;52.092;5.232;2022-10-16T04:21:26;12.80;99.90
17599;DHT22;8918;52.092;5.232;2022-10-16T04:23:52;12.80;99.90
17599;DHT22;8918;52.092;5.232;2022-10-16T04:26:18;12.70;99.90
17599;DHT22;8918;52.092;5.232;2022-10-16T04:28:43;12.80;99.90
17599;DHT22;8918;52.092;5.232;2022-10-16T04:31:09;12.70;99.90
17599;DHT22;8918;52.092;5.232;2022-10-16T04:33:35;12.70;99.90
17599;DHT22;8918;52.092;5.232;2022-10-16T04:36:02;12.70;99.90
17599;DHT22;8918;52.092;5.232;2022-10-16T04:38:28;12.70;99.90
17599;DHT22;8918;52.092;5.232;2022-10-16T04:40:53;12.80;99.90
17599;DHT22;8918;52.092;5.232;2022-10-16T04:43:19;12.70;99.90
17599;DHT22;8918;52.092;5.232;2022-10-16T04:45:45;12.80;99.90
17599;DHT22;8918;52.092;5.232;2022-10-16T04:48:11;12.70;99.90
17599;DHT22;8918;52.092;5.232;2022-10-16T04:50:36;12.80;99.90
17599;DHT22;8918;52.092;5.232;2022-10-16T04:53:02;12.80;99.90
17599;DHT22;8918;52.092;5.232;2022-10-16T04:55:28;12.80;99.90
17599;DHT22;8918;52.092;5.232;2022-10-16T04:57:53;12.80;99.90
17599;DHT22;8918;52.092;5.232;2022-10-16T05:00:19;12.80;99.90
17599;DHT22;8918;52.092;5.232;2022-10-16T05:02:44;12.80;99.90
17599;DHT22;8918;52.092;5.232;2022-10-16T05:05:10;12.70;99.90
17599;DHT22;8918;52.092;5.232;2022-10-16T05:07:36;12.70;99.90
17599;DHT22;8918;52.092;5.232;2022-10-16T05:10:02;12.70;99.90
17599;DHT22;8918;52.092;5.232;2022-10-16T05:12:27;12.70;99.90
17599;DHT22;8918;52.092;5.232;2022-10-16T05:14:53;12.70;99.90
17599;DHT22;8918;52.092;5.232;2022-10-16T05:17:26;12.60;99.90
17599;DHT22;8918;52.092;5.232;2022-10-16T05:19:52;12.50;99.90
17599;DHT22;8918;52.092;5.232;2022-10-16T05:22:18;12.50;99.90
17599;DHT22;8918;52.092;5.232;2022-10-16T05:24:44;12.50;99.90
17599;DHT22;8918;52.092;5.232;2022-10-16T05:27:10;12.50;99.90
17599;DHT22;8918;52.092;5.232;2022-10-16T05:29:36;12.50;99.90
17599;DHT22;8918;52.092;5.232;2022-10-16T05:32:01;12.50;99.90
17599;DHT22;8918;52.092;5.232;2022-10-16T05:34:27;12.50;99.90
17599;DHT22;8918;52.092;5.232;2022-10-16T05:36:53;12.50;99.90
17599;DHT22;8918;52.092;5.232;2022-10-16T05:39:18;12.50;99.90
17599;DHT22;8918;52.092;5.232;2022-10-16T05:41:44;12.50;99.90
17599;DHT22;8918;52.092;5.232;2022-10-16T05:44:10;12.50;99.90
17599;DHT22;8918;52.092;5.232;2022-10-16T05:46:36;12.50;99.90
17599;DHT22;8918;52.092;5.232;2022-10-16T05:49:02;12.50;99.90
17599;DHT22;8918;52.092;5.232;2022-10-16T05:51:27;12.50;99.90
17599;DHT22;8918;52.092;5.232;2022-10-16T05:53:53;12.50;99.90
17599;DHT22;8918;52.092;5.232;2022-10-16T05:56:18;12.50;99.90
17599;DHT22;8918;52.092;5.232;2022-10-16T05:58:44;12.50;99.90
17599;DHT22;8918;52.092;5.232;2022-10-16T06:01:18;12.50;99.90
17599;DHT22;8918;52.092;5.232;2022-10-16T06:03:44;12.50;99.90
17599;DHT22;8918;52.092;5.232;2022-10-16T06:06:11;12.50;99.90
17599;DHT22;8918;52.092;5.232;2022-10-16T06:08:38;12.50;99.90
17599;DHT22;8918;52.092;5.232;2022-10-16T06:11:06;12.50;99.90
17599;DHT22;8918;52.092;5.232;2022-10-16T06:13:31;12.50;99.90
17599;DHT22;8918;52.092;5.232;2022-10-16T06:15:59;12.60;99.90
17599;DHT22;8918;52.092;5.232;2022-10-16T06:18:26;12.60;99.90
17599;DHT22;8918;52.092;5.232;2022-10-16T06:20:52;12.60;99.90
17599;DHT22;8918;52.092;5.232;2022-10-16T06:23:18;12.60;99.90
17599;DHT22;8918;52.092;5.232;2022-10-16T06:25:43;12.60;99.90
17599;DHT22;8918;52.092;5.232;2022-10-16T06:28:09;12.60;99.90
17599;DHT22;8918;52.092;5.232;2022-10-16T06:30:35;12.60;99.90
17599;DHT22;8918;52.092;5.232;2022-10-16T06:33:00;12.60;99.90
17599;DHT22;8918;52.092;5.232;2022-10-16T06:35:26;12.70;99.90
17599;DHT22;8918;52.092;5.232;2022-10-16T06:37:53;12.60;99.90
17599;DHT22;8918;52.092;5.232;2022-10-16T06:40:18;12.70;99.90
17599;DHT22;8918;52.092;5.232;2022-10-16T06:42:44;12.70;99.90
17599;DHT22;8918;52.092;5.232;2022-10-16T06:45:10;12.80;99.90
17599;DHT22;8918;52.092;5.232;2022-10-16T06:47:36;12.80;99.90
17599;DHT22;8918;52.092;5.232;2022-10-16T06:50:02;12.80;99.90
17599;DHT22;8918;52.092;5.232;2022-10-16T06:52:29;12.90;99.90
17599;DHT22;8918;52.092;5.232;2022-10-16T06:54:54;12.90;99.90
17599;DHT22;8918;52.092;5.232;2022-10-16T06:57:20;13.00;99.90
17599;DHT22;8918;52.092;5.232;2022-10-16T06:59:45;13.00;99.90
17599;DHT22;8918;52.092;5.232;2022-10-16T07:02:11;12.90;99.90
17599;DHT22;8918;52.092;5.232;2022-10-16T07:04:36;12.90;99.90
17599;DHT22;8918;52.092;5.232;2022-10-16T07:07:02;12.90;99.90
17599;DHT22;8918;52.092;5.232;2022-10-16T07:09:28;12.90;99.90
17599;DHT22;8918;52.092;5.232;2022-10-16T07:11:53;13.00;99.90
17599;DHT22;8918;52.092;5.232;2022-10-16T07:14:20;13.00;99.90
17599;DHT22;8918;52.092;5.232;2022-10-16T07:16:47;13.00;99.90
17599;DHT22;8918;52.092;5.232;2022-10-16T07:19:12;13.00;99.90
17599;DHT22;8918;52.092;5.232;2022-10-16T07:21:40;13.00;99.90
17599;DHT22;8918;52.092;5.232;2022-10-16T07:24:10;13.10;99.90
17599;DHT22;8918;52.092;5.232;2022-10-16T07:26:37;13.00;99.90
17599;DHT22;8918;52.092;5.232;2022-10-16T07:29:11;13.00;99.90
17599;DHT22;8918;52.092;5.232;2022-10-16T07:31:38;13.10;99.90
17599;DHT22;8918;52.092;5.232;2022-10-16T07:34:05;13.10;99.90
17599;DHT22;8918;52.092;5.232;2022-10-16T07:36:30;13.10;99.90
17599;DHT22;8918;52.092;5.232;2022-10-16T07:38:56;13.20;99.90
17599;DHT22;8918;52.092;5.232;2022-10-16T07:41:21;13.20;99.90
17599;DHT22;8918;52.092;5.232;2022-10-16T07:43:52;13.20;99.90
17599;DHT22;8918;52.092;5.232;2022-10-16T07:46:19;13.30;99.90
17599;DHT22;8918;52.092;5.232;2022-10-16T07:48:45;13.20;99.90
17599;DHT22;8918;52.092;5.232;2022-10-16T07:51:14;13.20;99.90
17599;DHT22;8918;52.092;5.232;2022-10-16T07:53:40;13.20;99.90
17599;DHT22;8918;52.092;5.232;2022-10-16T07:56:07;13.20;99.90
17599;DHT22;8918;52.092;5.232;2022-10-16T07:58:34;13.20;99.90
17599;DHT22;8918;52.092;5.232;2022-10-16T08:01:03;13.30;99.90
17599;DHT22;8918;52.092;5.232;2022-10-16T08:03:29;13.30;99.90
17599;DHT22;8918;52.092;5.232;2022-10-16T08:05:57;13.40;99.90
17599;DHT22;8918;52.092;5.232;2022-10-16T08:08:22;13.40;99.90
17599;DHT22;8918;52.092;5.232;2022-10-16T08:10:48;13.50;99.90
17599;DHT22;8918;52.092;5.232;2022-10-16T08:13:14;13.50;99.90
17599;DHT22;8918;52.092;5.232;2022-10-16T08:15:43;13.60;99.90
17599;DHT22;8918;52.092;5.232;2022-10-16T08:18:11;13.60;99.90
17599;DHT22;8918;52.092;5.232;2022-10-16T08:20:37;13.70;99.90
17599;DHT22;8918;52.092;5.232;2022-10-16T08:23:02;13.80;99.90
17599;DHT22;8918;52.092;5.232;2022-10-16T08:25:28;13.90;99.90
17599;DHT22;8918;52.092;5.232;2022-10-16T08:27:54;13.90;99.90
17599;DHT22;8918;52.092;5.232;2022-10-16T08:30:21;14.00;99.90
17599;DHT22;8918;52.092;5.232;2022-10-16T08:32:47;14.10;99.90
17599;DHT22;8918;52.092;5.232;2022-10-16T08:35:15;14.10;99.90
17599;DHT22;8918;52.092;5.232;2022-10-16T08:37:42;14.10;99.90
17599;DHT22;8918;52.092;5.232;2022-10-16T08:40:20;14.20;99.90
17599;DHT22;8918;52.092;5.232;2022-10-16T08:50:52;14.60;99.90
17599;DHT22;8918;52.092;5.232;2022-10-16T08:53:29;14.60;99.90
17599;DHT22;8918;52.092;5.232;2022-10-16T08:55:55;14.70;99.90
17599;DHT22;8918;52.092;5.232;2022-10-16T08:58:23;14.80;99.90
17599;DHT22;8918;52.092;5.232;2022-10-16T09:01:00;14.90;99.90
17599;DHT22;8918;52.092;5.232;2022-10-16T09:04:04;15.00;99.90
17599;DHT22;8918;52.092;5.232;2022-10-16T09:09:48;15.20;99.90
17599;DHT22;8918;52.092;5.232;2022-10-16T09:18:03;15.70;99.90
17599;DHT22;8918;52.092;5.232;2022-10-16T09:23:21;16.30;99.90
17599;DHT22;8918;52.092;5.232;2022-10-16T09:25:49;16.60;99.90
17599;DHT22;8918;52.092;5.232;2022-10-16T09:28:16;16.70;99.90
17599;DHT22;8918;52.092;5.232;2022-10-16T09:30:42;16.80;99.90
17599;DHT22;8918;52.092;5.232;2022-10-16T09:33:10;16.90;99.90
17599;DHT22;8918;52.092;5.232;2022-10-16T09:35:42;17.10;99.90
17599;DHT22;8918;52.092;5.232;2022-10-16T09:38:09;17.00;99.90
17599;DHT22;8918;52.092;5.232;2022-10-16T09:40:46;16.90;99.90
17599;DHT22;8918;52.092;5.232;2022-10-16T09:43:21;16.80;99.90
17599;DHT22;8918;52.092;5.232;2022-10-16T09:45:59;16.90;99.90
17599;DHT22;8918;52.092;5.232;2022-10-16T09:48:36;16.90;99.90
17599;DHT22;8918;52.092;5.232;2022-10-16T09:51:04;16.90;99.90
17599;DHT22;8918;52.092;5.232;2022-10-16T09:53:44;16.90;99.90
17599;DHT22;8918;52.092;5.232;2022-10-16T09:56:23;17.00;99.90
17599;DHT22;8918;52.092;5.232;2022-10-16T09:58:57;17.20;99.90
17599;DHT22;8918;52.092;5.232;2022-10-16T10:01:31;17.40;99.90
17599;DHT22;8918;52.092;5.232;2022-10-16T10:04:00;17.40;99.90
17599;DHT22;8918;52.092;5.232;2022-10-16T10:06:34;17.50;99.90
17599;DHT22;8918;52.092;5.232;2022-10-16T10:09:25;17.70;99.90
17599;DHT22;8918;52.092;5.232;2022-10-16T10:12:14;18.00;99.90
17599;DHT22;8918;52.092;5.232;2022-10-16T10:14:53;18.20;99.90
17599;DHT22;8918;52.092;5.232;2022-10-16T10:17:24;18.30;99.90
17599;DHT22;8918;52.092;5.232;2022-10-16T10:19:54;18.50;99.90
17599;DHT22;8918;52.092;5.232;2022-10-16T10:22:46;18.90;99.90
17599;DHT22;8918;52.092;5.232;2022-10-16T10:25:14;18.80;99.90
17599;DHT22;8918;52.092;5.232;2022-10-16T10:30:41;18.50;99.90
17599;DHT22;8918;52.092;5.232;2022-10-16T10:38:55;18.70;99.90
17599;DHT22;8918;52.092;5.232;2022-10-16T10:46:33;19.00;99.90
17599;DHT22;8918;52.092;5.232;2022-10-16T11:00:21;18.70;99.90
17599;DHT22;8918;52.092;5.232;2022-10-16T11:03:13;18.90;99.90
17599;DHT22;8918;52.092;5.232;2022-10-16T11:05:50;19.00;99.90
17599;DHT22;8918;52.092;5.232;2022-10-16T11:08:26;18.90;99.90
17599;DHT22;8918;52.092;5.232;2022-10-16T11:11:04;18.70;99.90
17599;DHT22;8918;52.092;5.232;2022-10-16T11:13:39;18.70;99.90
17599;DHT22;8918;52.092;5.232;2022-10-16T11:16:28;18.90;99.90
17599;DHT22;8918;52.092;5.232;2022-10-16T11:25:05;19.30;99.90
17599;DHT22;8918;52.092;5.232;2022-10-16T11:27:47;19.30;99.90
17599;DHT22;8918;52.092;5.232;2022-10-16T11:30:20;19.30;99.90
17599;DHT22;8918;52.092;5.232;2022-10-16T11:35:51;19.70;99.90
17599;DHT22;8918;52.092;5.232;2022-10-16T11:40:54;20.10;99.90
17599;DHT22;8918;52.092;5.232;2022-10-16T11:43:36;20.20;99.90
17599;DHT22;8918;52.092;5.232;2022-10-16T11:46:13;20.20;99.90
17599;DHT22;8918;52.092;5.232;2022-10-16T11:48:50;20.30;99.90
17599;DHT22;8918;52.092;5.232;2022-10-16T11:51:42;20.40;99.90
17599;DHT22;8918;52.092;5.232;2022-10-16T11:57:21;20.30;99.90
17599;DHT22;8918;52.092;5.232;2022-10-16T12:03:10;20.50;99.90
17599;DHT22;8918;52.092;5.232;2022-10-16T12:08:11;20.10;99.90
17599;DHT22;8918;52.092;5.232;2022-10-16T12:10:39;19.90;99.90
17599;DHT22;8918;52.092;5.232;2022-10-16T12:13:35;19.90;99.90
17599;DHT22;8918;52.092;5.232;2022-10-16T12:16:21;19.90;99.90
17599;DHT22;8918;52.092;5.232;2022-10-16T12:18:48;20.00;99.90
17599;DHT22;8918;52.092;5.232;2022-10-16T12:21:15;19.90;99.90
17599;DHT22;8918;52.092;5.232;2022-10-16T12:23:56;19.90;99.90
17599;DHT22;8918;52.092;5.232;2022-10-16T12:26:26;19.80;99.90
17599;DHT22;8918;52.092;5.232;2022-10-16T12:28:53;19.80;99.90
17599;DHT22;8918;52.092;5.232;2022-10-16T12:31:19;19.80;99.90
17599;DHT22;8918;52.092;5.232;2022-10-16T12:34:02;19.80;99.90
17599;DHT22;8918;52.092;5.232;2022-10-16T12:36:33;19.70;99.90
17599;DHT22;8918;52.092;5.232;2022-10-16T12:38:59;19.70;99.90
17599;DHT22;8918;52.092;5.232;2022-10-16T12:41:30;19.60;99.90
17599;DHT22;8918;52.092;5.232;2022-10-16T12:43:57;19.50;99.90
17599;DHT22;8918;52.092;5.232;2022-10-16T12:46:34;19.60;99.90
17599;DHT22;8918;52.092;5.232;2022-10-16T12:51:39;19.50;99.90
17599;DHT22;8918;52.092;5.232;2022-10-16T12:54:27;19.40;99.90
17599;DHT22;8918;52.092;5.232;2022-10-16T12:59:41;19.40;99.90
17599;DHT22;8918;52.092;5.232;2022-10-16T13:10:39;19.30;99.90
17599;DHT22;8918;52.092;5.232;2022-10-16T13:18:25;19.20;99.90
17599;DHT22;8918;52.092;5.232;2022-10-16T13:21:11;19.20;99.90
17599;DHT22;8918;52.092;5.232;2022-10-16T13:23:49;19.20;99.90
17599;DHT22;8918;52.092;5.232;2022-10-16T13:26:38;19.20;99.90
17599;DHT22;8918;52.092;5.232;2022-10-16T13:29:05;19.20;99.90
17599;DHT22;8918;52.092;5.232;2022-10-16T13:31:31;19.20;99.90
17599;DHT22;8918;52.092;5.232;2022-10-16T13:33:58;19.10;99.90
17599;DHT22;8918;52.092;5.232;2022-10-16T13:36:30;19.00;99.90
17599;DHT22;8918;52.092;5.232;2022-10-16T13:41:26;18.90;99.90
17599;DHT22;8918;52.092;5.232;2022-10-16T13:43:53;18.80;99.90
17599;DHT22;8918;52.092;5.232;2022-10-16T13:46:23;18.70;99.90
17599;DHT22;8918;52.092;5.232;2022-10-16T13:49:03;18.60;99.90
17599;DHT22;8918;52.092;5.232;2022-10-16T13:51:31;18.50;99.90
17599;DHT22;8918;52.092;5.232;2022-10-16T13:53:58;18.40;99.90
17599;DHT22;8918;52.092;5.232;2022-10-16T13:56:28;18.20;99.90
17599;DHT22;8918;52.092;5.232;2022-10-16T13:58:59;18.20;99.90
17599;DHT22;8918;52.092;5.232;2022-10-16T14:01:28;18.20;99.90
17599;DHT22;8918;52.092;5.232;2022-10-16T14:04:01;18.10;99.90
17599;DHT22;8918;52.092;5.232;2022-10-16T14:06:27;18.10;99.90
17599;DHT22;8918;52.092;5.232;2022-10-16T14:09:29;18.10;99.90
17599;DHT22;8918;52.092;5.232;2022-10-16T14:12:02;18.00;99.90
17599;DHT22;8918;52.092;5.232;2022-10-16T14:14:34;18.00;99.90
17599;DHT22;8918;52.092;5.232;2022-10-16T14:17:02;18.00;99.90
17599;DHT22;8918;52.092;5.232;2022-10-16T14:19:29;17.90;99.90
17599;DHT22;8918;52.092;5.232;2022-10-16T14:21:56;17.90;99.90
17599;DHT22;8918;52.092;5.232;2022-10-16T14:26:53;17.90;99.90
17599;DHT22;8918;52.092;5.232;2022-10-16T14:29:22;17.90;99.90
17599;DHT22;8918;52.092;5.232;2022-10-16T14:31:55;17.90;99.90
17599;DHT22;8918;52.092;5.232;2022-10-16T14:34:34;17.80;99.90
17599;DHT22;8918;52.092;5.232;2022-10-16T14:37:23;17.80;99.90
17599;DHT22;8918;52.092;5.232;2022-10-16T14:39:50;17.80;99.90
17599;DHT22;8918;52.092;5.232;2022-10-16T14:42:18;17.80;99.90
17599;DHT22;8918;52.092;5.232;2022-10-16T14:44:46;17.80;99.90
17599;DHT22;8918;52.092;5.232;2022-10-16T14:47:17;17.70;99.90
17599;DHT22;8918;52.092;5.232;2022-10-16T14:49:47;17.80;99.90
17599;DHT22;8918;52.092;5.232;2022-10-16T14:52:13;17.70;99.90
17599;DHT22;8918;52.092;5.232;2022-10-16T14:54:40;17.70;99.90
17599;DHT22;8918;52.092;5.232;2022-10-16T14:57:05;17.70;99.90
17599;DHT22;8918;52.092;5.232;2022-10-16T14:59:41;17.70;99.90
17599;DHT22;8918;52.092;5.232;2022-10-16T15:04:48;17.50;99.90
17599;DHT22;8918;52.092;5.232;2022-10-16T15:07:14;17.50;99.90
17599;DHT22;8918;52.092;5.232;2022-10-16T15:09:40;17.40;99.90
17599;DHT22;8918;52.092;5.232;2022-10-16T15:12:05;17.40;99.90
17599;DHT22;8918;52.092;5.232;2022-10-16T15:14:31;17.40;99.90
17599;DHT22;8918;52.092;5.232;2022-10-16T15:16:57;17.30;99.90
17599;DHT22;8918;52.092;5.232;2022-10-16T15:19:22;17.30;99.90
17599;DHT22;8918;52.092;5.232;2022-10-16T15:21:48;17.30;99.90
17599;DHT22;8918;52.092;5.232;2022-10-16T15:24:14;17.30;99.90
17599;DHT22;8918;52.092;5.232;2022-10-16T15:26:40;17.30;99.90
17599;DHT22;8918;52.092;5.232;2022-10-16T15:29:06;17.20;99.90
17599;DHT22;8918;52.092;5.232;2022-10-16T15:31:32;17.20;99.90
17599;DHT22;8918;52.092;5.232;2022-10-16T15:33:57;17.20;99.90
17599;DHT22;8918;52.092;5.232;2022-10-16T15:36:31;17.10;99.90
17599;DHT22;8918;52.092;5.232;2022-10-16T15:38:59;17.00;99.90
17599;DHT22;8918;52.092;5.232;2022-10-16T15:41:24;16.90;99.90
17599;DHT22;8918;52.092;5.232;2022-10-16T15:43:51;16.80;99.90
17599;DHT22;8918;52.092;5.232;2022-10-16T15:46:21;16.80;99.90
17599;DHT22;8918;52.092;5.232;2022-10-16T15:48:48;16.80;99.90
17599;DHT22;8918;52.092;5.232;2022-10-16T15:51:13;16.70;99.90
17599;DHT22;8918;52.092;5.232;2022-10-16T15:53:39;16.60;99.90
17599;DHT22;8918;52.092;5.232;2022-10-16T15:56:07;16.60;99.90
17599;DHT22;8918;52.092;5.232;2022-10-16T15:58:34;16.60;99.90
17599;DHT22;8918;52.092;5.232;2022-10-16T16:01:01;16.60;99.90
17599;DHT22;8918;52.092;5.232;2022-10-16T16:03:27;16.60;99.90
17599;DHT22;8918;52.092;5.232;2022-10-16T16:05:54;16.50;99.90
17599;DHT22;8918;52.092;5.232;2022-10-16T16:08:19;16.50;99.90
17599;DHT22;8918;52.092;5.232;2022-10-16T16:10:45;16.40;99.90
17599;DHT22;8918;52.092;5.232;2022-10-16T16:13:11;16.40;99.90
17599;DHT22;8918;52.092;5.232;2022-10-16T16:15:40;16.40;99.90
17599;DHT22;8918;52.092;5.232;2022-10-16T16:18:06;16.30;99.90
17599;DHT22;8918;52.092;5.232;2022-10-16T16:20:32;16.30;99.90
17599;DHT22;8918;52.092;5.232;2022-10-16T16:22:58;16.20;99.90
17599;DHT22;8918;52.092;5.232;2022-10-16T16:25:23;16.20;99.90
17599;DHT22;8918;52.092;5.232;2022-10-16T16:27:49;16.20;99.90
17599;DHT22;8918;52.092;5.232;2022-10-16T16:30:14;16.10;99.90
17599;DHT22;8918;52.092;5.232;2022-10-16T16:32:40;16.10;99.90
17599;DHT22;8918;52.092;5.232;2022-10-16T16:35:06;16.10;99.90
17599;DHT22;8918;52.092;5.232;2022-10-16T16:37:32;16.10;99.90
17599;DHT22;8918;52.092;5.232;2022-10-16T16:39:57;16.00;99.90
17599;DHT22;8918;52.092;5.232;2022-10-16T16:42:25;16.00;99.90
17599;DHT22;8918;52.092;5.232;2022-10-16T16:44:50;15.90;99.90
17599;DHT22;8918;52.092;5.232;2022-10-16T16:47:16;15.80;99.90
17599;DHT22;8918;52.092;5.232;2022-10-16T16:49:42;15.80;99.90
17599;DHT22;8918;52.092;5.232;2022-10-16T16:52:07;15.70;99.90
17599;DHT22;8918;52.092;5.232;2022-10-16T16:54:33;15.70;99.90
17599;DHT22;8918;52.092;5.232;2022-10-16T16:56:58;15.60;99.90
17599;DHT22;8918;52.092;5.232;2022-10-16T16:59:24;15.60;99.90
17599;DHT22;8918;52.092;5.232;2022-10-16T17:01:50;15.60;99.90
17599;DHT22;8918;52.092;5.232;2022-10-16T17:04:16;15.50;99.90
17599;DHT22;8918;52.092;5.232;2022-10-16T17:06:42;15.60;99.90
17599;DHT22;8918;52.092;5.232;2022-10-16T17:09:09;15.60;99.90
17599;DHT22;8918;52.092;5.232;2022-10-16T17:11:38;15.50;99.90
17599;DHT22;8918;52.092;5.232;2022-10-16T17:14:04;15.50;99.90
17599;DHT22;8918;52.092;5.232;2022-10-16T17:16:35;15.50;99.90
17599;DHT22;8918;52.092;5.232;2022-10-16T17:19:12;15.50;99.90
17599;DHT22;8918;52.092;5.232;2022-10-16T17:21:39;15.50;99.90
17599;DHT22;8918;52.092;5.232;2022-10-16T17:24:05;15.50;99.90
17599;DHT22;8918;52.092;5.232;2022-10-16T17:26:31;15.50;99.90
17599;DHT22;8918;52.092;5.232;2022-10-16T17:28:59;15.50;99.90
17599;DHT22;8918;52.092;5.232;2022-10-16T17:31:27;15.40;99.90
17599;DHT22;8918;52.092;5.232;2022-10-16T17:33:53;15.40;99.90
17599;DHT22;8918;52.092;5.232;2022-10-16T17:36:19;15.30;99.90